createdAt,value
2022-08-04T00:02:19.967Z,98294.03
2022-08-04T00:04:50.709Z,98285.28
2022-08-04T00:07:44.947Z,98287.28
2022-08-04T00:10:14.781Z,98278.81
2022-08-04T00:12:45.156Z,98279.03
2022-08-04T00:15:16.723Z,98286.88
2022-08-04T00:17:47.037Z,98281.22
2022-08-04T00:20:20.859Z,98281.94
2022-08-04T00:22:49.411Z,98272.09
2022-08-04T00:25:17.538Z,98272.56
2022-08-04T00:27:46.271Z,98278.38
2022-08-04T00:30:14.398Z,98282.66
2022-08-04T00:32:42.939Z,98281.34
2022-08-04T00:35:11.338Z,98277.53
2022-08-04T00:37:41.237Z,98281.56
2022-08-04T00:40:14.580Z,98275.59
2022-08-04T00:42:58.310Z,98272.63
2022-08-04T00:46:10.566Z,98268.84
2022-08-04T00:48:38.843Z,98268.94
2022-08-04T00:51:12.044Z,98271.69
2022-08-04T00:53:49.946Z,98268.22
2022-08-04T00:56:38.461Z,98276.94
2022-08-04T00:59:12.419Z,98283.28
2022-08-04T01:01:49.832Z,98279.25
2022-08-04T01:04:22.502Z,98279.53
2022-08-04T01:07:01.072Z,98283.84
2022-08-04T01:09:38.950Z,98279.19
2022-08-04T01:12:19.033Z,98271.00
2022-08-04T01:14:55.880Z,98276.44
2022-08-04T01:17:26.349Z,98282.88
2022-08-04T01:19:56.031Z,98277.16
2022-08-04T01:22:38.967Z,98280.69
2022-08-04T01:25:24.748Z,98278.88
2022-08-04T01:28:11.562Z,98274.13
2022-08-04T01:30:44.230Z,98278.88
2022-08-04T01:33:14.368Z,98281.50
2022-08-04T01:35:48.589Z,98274.22
2022-08-04T01:38:21.456Z,98277.44
2022-08-04T01:40:53.149Z,98284.66
2022-08-04T01:43:21.517Z,98282.72
2022-08-04T01:45:52.387Z,98284.44
2022-08-04T01:48:24.856Z,98281.25
2022-08-04T01:50:53.258Z,98278.41
2022-08-04T01:53:21.730Z,98279.00
2022-08-04T01:55:54.330Z,98282.66
2022-08-04T01:58:24.480Z,98276.03
2022-08-04T02:00:58.089Z,98275.00
2022-08-04T02:04:19.594Z,98275.78
2022-08-04T02:06:19.623Z,98276.72
2022-08-04T02:08:52.393Z,98274.19
2022-08-04T02:11:22.100Z,98280.13
2022-08-04T02:13:55.053Z,98280.44
2022-08-04T02:16:30.166Z,98264.41
2022-08-04T02:19:02.934Z,98277.88
2022-08-04T02:21:42.714Z,98275.41
2022-08-04T02:24:15.316Z,98272.25
2022-08-04T02:26:46.415Z,98271.03
2022-08-04T02:29:18.054Z,98270.53
2022-08-04T02:31:50.458Z,98268.56
2022-08-04T02:34:24.544Z,98270.13
2022-08-04T02:36:53.552Z,98268.81
2022-08-04T02:39:22.184Z,98255.81
2022-08-04T02:41:52.056Z,98256.94
2022-08-04T02:44:21.743Z,98262.09
2022-08-04T02:46:52.786Z,98266.28
2022-08-04T02:49:22.049Z,98255.19
2022-08-04T02:51:51.710Z,98257.97
2022-08-04T02:54:31.600Z,98259.25
2022-08-04T02:57:04.504Z,98261.97
2022-08-04T02:59:43.927Z,98263.16
2022-08-04T03:02:13.357Z,98261.09
2022-08-04T03:04:48.311Z,98263.31
2022-08-04T03:07:25.364Z,98262.78
2022-08-04T03:10:11.669Z,98262.31
2022-08-04T03:13:09.890Z,98255.38
2022-08-04T03:15:53.424Z,98250.34
2022-08-04T03:18:36.102Z,98239.13
2022-08-04T03:21:28.464Z,98256.06
2022-08-04T03:24:19.624Z,98267.69
2022-08-04T03:27:04.929Z,98268.03
2022-08-04T03:29:55.155Z,98268.31
2022-08-04T03:32:42.023Z,98258.38
2022-08-04T03:35:30.770Z,98259.41
2022-08-04T03:38:09.464Z,98267.59
2022-08-04T03:40:48.517Z,98265.81
2022-08-04T03:43:59.173Z,98265.53
2022-08-04T03:46:38.179Z,98258.19
2022-08-04T03:49:24.988Z,98265.78
2022-08-04T03:52:20.442Z,98260.88
2022-08-04T03:55:12.634Z,98262.63
2022-08-04T03:57:48.498Z,98265.63
2022-08-04T04:00:19.423Z,98257.69
2022-08-04T04:03:01.820Z,98255.47
2022-08-04T04:06:00.035Z,98260.28
2022-08-04T04:08:49.661Z,98254.47
2022-08-04T04:11:56.405Z,98257.53
2022-08-04T04:14:37.984Z,98261.94
2022-08-04T04:17:10.321Z,98264.09
2022-08-04T04:19:49.800Z,98260.72
2022-08-04T04:22:22.632Z,98258.41
2022-08-04T04:24:59.046Z,98258.13
2022-08-04T04:27:34.824Z,98262.63
2022-08-04T04:30:06.146Z,98267.06
2022-08-04T04:32:37.274Z,98261.63
2022-08-04T04:35:12.089Z,98264.13
2022-08-04T04:37:52.434Z,98263.97
2022-08-04T04:40:29.557Z,98265.66
2022-08-04T04:43:06.797Z,98269.91
2022-08-04T04:45:37.371Z,98273.72
2022-08-04T04:48:10.771Z,98270.09
2022-08-04T04:50:45.228Z,98275.91
2022-08-04T04:53:17.471Z,98278.50
2022-08-04T04:55:52.223Z,98273.16
2022-08-04T04:58:21.474Z,98278.28
2022-08-04T05:01:09.224Z,98279.75
2022-08-04T05:03:49.754Z,98279.25
2022-08-04T05:06:25.363Z,98274.94
2022-08-04T05:09:13.244Z,98279.66
2022-08-04T05:12:02.613Z,98269.91
2022-08-04T05:14:41.751Z,98268.16
2022-08-04T05:17:16.556Z,98269.09
2022-08-04T05:19:51.997Z,98273.09
2022-08-04T05:22:23.611Z,98270.72
2022-08-04T05:24:56.218Z,98277.00
2022-08-04T05:27:29.412Z,98278.13
2022-08-04T05:30:02.288Z,98278.97
2022-08-04T05:32:32.312Z,98275.50
2022-08-04T05:35:03.887Z,98279.91
2022-08-04T05:37:34.123Z,98278.69
2022-08-04T05:40:04.153Z,98277.38
2022-08-04T05:42:32.800Z,98283.06
2022-08-04T05:45:03.228Z,98280.41
2022-08-04T05:47:34.269Z,98270.13
2022-08-04T05:50:03.420Z,98271.91
2022-08-04T05:52:32.176Z,98277.06
2022-08-04T05:55:01.556Z,98274.63
2022-08-04T05:57:30.032Z,98279.63
2022-08-04T05:59:59.974Z,98285.78
2022-08-04T06:02:31.316Z,98274.47
2022-08-04T06:05:00.360Z,98275.19
2022-08-04T06:07:28.487Z,98282.50
2022-08-04T06:09:56.612Z,98277.38
2022-08-04T06:12:27.283Z,98285.47
2022-08-04T06:14:59.419Z,98280.84
2022-08-04T06:19:56.326Z,98282.19
2022-08-04T06:20:32.853Z,98279.53
2022-08-04T06:23:07.133Z,98275.28
2022-08-04T06:25:42.676Z,98280.34
2022-08-04T06:28:11.247Z,98286.78
2022-08-04T06:30:40.247Z,98279.97
2022-08-04T06:33:24.411Z,98280.31
2022-08-04T06:35:55.237Z,98276.22
2022-08-04T06:38:24.137Z,98267.97
2022-08-04T06:40:52.452Z,98275.75
2022-08-04T06:43:21.639Z,98273.63
2022-08-04T06:45:49.945Z,98270.53
2022-08-04T06:48:19.979Z,98275.00
2022-08-04T06:51:32.633Z,98272.19
2022-08-04T06:53:39.145Z,98268.66
2022-08-04T06:56:08.987Z,98269.75
2022-08-04T06:58:38.156Z,98273.50
2022-08-04T07:01:06.421Z,98273.78
2022-08-04T07:03:36.048Z,98274.16
2022-08-04T07:06:05.810Z,98279.09
2022-08-04T07:08:36.180Z,98269.81
2022-08-04T07:11:05.501Z,98277.72
2022-08-04T07:13:33.983Z,98278.56
2022-08-04T07:16:02.439Z,98277.13
2022-08-04T07:18:31.808Z,98279.44
2022-08-04T07:21:01.291Z,98272.06
2022-08-04T07:23:29.479Z,98267.50
2022-08-04T07:26:10.953Z,98274.94
2022-08-04T07:28:41.965Z,98266.31
2022-08-04T07:31:32.026Z,98261.38
2022-08-04T07:34:17.742Z,98263.88
2022-08-04T07:36:52.811Z,98259.72
2022-08-04T07:39:27.461Z,98260.66
2022-08-04T07:41:57.452Z,98254.28
2022-08-04T07:44:25.898Z,98260.41
2022-08-04T07:46:56.353Z,98257.97
2022-08-04T07:49:56.043Z,98262.00
2022-08-04T07:52:16.584Z,98256.78
2022-08-04T07:54:44.794Z,98262.03
2022-08-04T07:57:39.583Z,98254.81
2022-08-04T08:00:01.064Z,98256.63
2022-08-04T08:02:29.383Z,98264.56
2022-08-04T08:04:57.561Z,98253.28
2022-08-04T08:07:26.995Z,98260.06
2022-08-04T08:09:55.234Z,98257.34
2022-08-04T08:12:36.712Z,98251.69
2022-08-04T08:15:13.517Z,98256.69
2022-08-04T08:17:58.279Z,98262.31
2022-08-04T08:20:30.370Z,98235.56
2022-08-04T08:23:00.610Z,98253.16
2022-08-04T08:25:28.793Z,98248.44
2022-08-04T08:27:56.967Z,98258.59
2022-08-04T08:30:25.316Z,98254.81
2022-08-04T08:33:05.509Z,98250.06
2022-08-04T08:35:46.909Z,98246.19
2022-08-04T08:38:28.416Z,98245.97
2022-08-04T08:40:59.821Z,98243.34
2022-08-04T08:44:00.669Z,98250.69
2022-08-04T08:46:49.643Z,98246.66
2022-08-04T08:50:03.061Z,98251.13
2022-08-04T08:52:57.547Z,98246.66
2022-08-04T08:55:19.883Z,98247.47
2022-08-04T08:58:04.343Z,98249.63
2022-08-04T09:00:38.381Z,98252.66
2022-08-04T09:03:18.413Z,98251.41
2022-08-04T09:05:58.681Z,98250.56
2022-08-04T09:08:38.340Z,98246.34
2022-08-04T09:11:10.278Z,98252.69
2022-08-04T09:13:41.482Z,98248.50
2022-08-04T09:16:16.563Z,98255.34
2022-08-04T09:18:47.951Z,98251.75
2022-08-04T09:21:19.708Z,98252.31
2022-08-04T09:23:50.404Z,98256.41
2022-08-04T09:26:23.422Z,98265.56
2022-08-04T09:28:55.163Z,98253.56
2022-08-04T09:31:25.536Z,98255.81
2022-08-04T09:34:00.069Z,98254.03
2022-08-04T09:36:35.683Z,98253.56
2022-08-04T09:39:07.554Z,98250.25
2022-08-04T09:41:48.992Z,98254.84
2022-08-04T09:44:50.974Z,98240.06
2022-08-04T09:47:15.525Z,98244.94
2022-08-04T09:49:47.353Z,98243.50
2022-08-04T09:52:23.539Z,98245.09
2022-08-04T09:54:53.899Z,98251.59
2022-08-04T09:57:31.208Z,98246.75
2022-08-04T10:00:03.023Z,98255.88
2022-08-04T10:02:41.578Z,98246.91
2022-08-04T10:05:12.686Z,98239.19
2022-08-04T10:08:10.918Z,98240.34
2022-08-04T10:10:38.067Z,98236.19
2022-08-04T10:13:24.749Z,98238.47
2022-08-04T10:15:59.485Z,98237.84
2022-08-04T10:18:39.696Z,98229.91
2022-08-04T10:21:15.388Z,98233.38
2022-08-04T10:23:55.831Z,98226.88
2022-08-04T10:26:32.018Z,98223.31
2022-08-04T10:29:03.564Z,98218.81
2022-08-04T10:31:34.898Z,98214.25
2022-08-04T10:34:05.775Z,98221.09
2022-08-04T10:36:41.189Z,98212.13
2022-08-04T10:39:41.744Z,98213.81
2022-08-04T10:42:07.219Z,98215.66
2022-08-04T10:44:42.262Z,98215.81
2022-08-04T10:47:17.075Z,98205.69
2022-08-04T10:49:47.082Z,98208.97
2022-08-04T10:52:19.137Z,98206.81
2022-08-04T10:54:50.040Z,98200.06
2022-08-04T10:57:22.188Z,98202.69
2022-08-04T10:59:58.934Z,98202.56
2022-08-04T11:02:43.603Z,98187.06
2022-08-04T11:05:19.776Z,98193.75
2022-08-04T11:07:50.235Z,98203.38
2022-08-04T11:10:20.512Z,98199.09
2022-08-04T11:12:55.144Z,98201.69
2022-08-04T11:15:24.789Z,98205.06
2022-08-04T11:17:56.937Z,98195.31
2022-08-04T11:20:35.247Z,98197.16
2022-08-04T11:23:06.922Z,98203.13
2022-08-04T11:25:37.702Z,98198.22
2022-08-04T11:28:10.397Z,98205.06
2022-08-04T11:30:41.480Z,98200.03
2022-08-04T11:33:19.946Z,98204.47
2022-08-04T11:35:51.713Z,98206.47
2022-08-04T11:38:23.852Z,98203.38
2022-08-04T11:41:02.340Z,98202.41
2022-08-04T11:44:01.389Z,98204.59
2022-08-04T11:46:27.559Z,98201.94
2022-08-04T11:49:01.945Z,98196.78
2022-08-04T11:51:31.949Z,98199.81
2022-08-04T11:54:00.493Z,98199.81
2022-08-04T11:56:36.593Z,98198.06
2022-08-04T11:59:08.715Z,98194.00
2022-08-04T12:01:43.380Z,98196.19
2022-08-04T12:04:15.137Z,98192.72
2022-08-04T12:06:56.967Z,98194.28
2022-08-04T12:09:33.204Z,98193.13
2022-08-04T12:12:08.224Z,98186.00
2022-08-04T12:14:48.100Z,98193.22
2022-08-04T12:17:23.216Z,98194.22
2022-08-04T12:20:04.278Z,98194.97
2022-08-04T12:22:36.372Z,98198.19
2022-08-04T12:25:09.804Z,98186.91
2022-08-04T12:27:40.945Z,98179.38
2022-08-04T12:30:59.211Z,98189.78
2022-08-04T12:33:01.401Z,98183.72
2022-08-04T12:35:35.154Z,98179.84
2022-08-04T12:38:06.152Z,98179.41
2022-08-04T12:40:38.276Z,98176.56
2022-08-04T12:43:09.941Z,98174.91
2022-08-04T12:45:44.524Z,98180.56
2022-08-04T12:48:21.430Z,98156.63
2022-08-04T12:50:51.911Z,98169.09
2022-08-04T12:53:31.857Z,98166.13
2022-08-04T12:56:02.377Z,98165.03
2022-08-04T12:58:42.802Z,98169.84
2022-08-04T13:02:09.123Z,98168.63
2022-08-04T13:04:04.202Z,98166.25
2022-08-04T13:06:35.412Z,98166.25
2022-08-04T13:09:04.807Z,98164.59
2022-08-04T13:11:35.996Z,98166.63
2022-08-04T13:14:25.999Z,98161.84
2022-08-04T13:16:57.926Z,98165.69
2022-08-04T13:19:26.434Z,98154.19
2022-08-04T13:22:02.892Z,98148.56
2022-08-04T13:24:33.613Z,98147.75
2022-08-04T13:27:06.128Z,98145.63
2022-08-04T13:29:57.723Z,98143.72
2022-08-04T13:32:25.251Z,98126.00
2022-08-04T13:34:55.961Z,98123.63
2022-08-04T13:37:27.774Z,98128.47
2022-08-04T13:39:56.808Z,98116.84
2022-08-04T13:42:26.405Z,98124.19
2022-08-04T13:44:55.699Z,98103.59
2022-08-04T13:47:27.935Z,98120.84
2022-08-04T13:50:17.477Z,98122.84
2022-08-04T13:52:47.205Z,98112.28
2022-08-04T13:55:22.996Z,98104.34
2022-08-04T13:57:54.261Z,98115.56
2022-08-04T14:00:29.920Z,98109.56
2022-08-04T14:03:01.507Z,98107.38
2022-08-04T14:05:35.291Z,98116.28
2022-08-04T14:08:22.106Z,98108.34
2022-08-04T14:10:55.510Z,98103.69
2022-08-04T14:13:30.846Z,98103.34
2022-08-04T14:16:16.468Z,98102.56
2022-08-04T14:18:44.768Z,98095.50
2022-08-04T14:21:14.213Z,98097.00
2022-08-04T14:23:47.608Z,98092.66
2022-08-04T14:26:17.403Z,98085.75
2022-08-04T14:29:25.827Z,98082.44
2022-08-04T14:31:33.892Z,98081.06
2022-08-04T14:34:09.926Z,98082.94
2022-08-04T14:37:15.461Z,98074.91
2022-08-04T14:39:40.107Z,98068.34
2022-08-04T14:42:08.253Z,98076.28
2022-08-04T14:44:51.227Z,98076.84
2022-08-04T14:47:19.348Z,98070.53
2022-08-04T14:49:55.144Z,98064.09
2022-08-04T14:52:26.552Z,98076.66
2022-08-04T14:54:56.257Z,98064.41
2022-08-04T14:57:24.728Z,98066.22
2022-08-04T15:00:00.499Z,98061.53
2022-08-04T15:02:30.577Z,98058.44
2022-08-04T15:06:02.227Z,98062.53
2022-08-04T15:07:48.497Z,98059.97
2022-08-04T15:10:18.084Z,98060.91
2022-08-04T15:12:46.241Z,98059.28
2022-08-04T15:15:36.003Z,98056.69
2022-08-04T15:18:03.700Z,98052.16
2022-08-04T15:20:32.687Z,98054.28
2022-08-04T15:23:07.323Z,98050.53
2022-08-04T15:25:44.977Z,98050.22
2022-08-04T15:28:15.205Z,98055.31
2022-08-04T15:30:45.452Z,98048.66
2022-08-04T15:33:22.007Z,98051.44
2022-08-04T15:35:51.485Z,98048.91
2022-08-04T15:38:30.928Z,98047.81
2022-08-04T15:41:06.163Z,98055.88
2022-08-04T15:43:41.769Z,98049.50
2022-08-04T15:46:43.136Z,98046.97
2022-08-04T15:49:18.162Z,98045.34
2022-08-04T15:51:46.204Z,98041.25
2022-08-04T15:54:27.781Z,98038.78
2022-08-04T15:57:01.352Z,98037.84
2022-08-04T15:59:49.942Z,98038.59
2022-08-04T16:02:45.439Z,98029.34
2022-08-04T16:05:35.566Z,98034.94
2022-08-04T16:08:14.268Z,98034.63
2022-08-04T16:10:43.352Z,98033.16
2022-08-04T16:13:14.870Z,98028.44
2022-08-04T16:15:44.525Z,98022.28
2022-08-04T16:18:26.323Z,98020.47
2022-08-04T16:20:59.353Z,98018.75
2022-08-04T16:23:54.299Z,98014.75
2022-08-04T16:26:54.412Z,98014.97
2022-08-04T16:29:35.546Z,98015.63
2022-08-04T16:32:18.944Z,98007.53
2022-08-04T16:34:54.187Z,98018.28
2022-08-04T16:37:24.374Z,98006.91
2022-08-04T16:40:12.461Z,98008.44
2022-08-04T16:42:40.564Z,98002.50
2022-08-04T16:45:13.627Z,98005.41
2022-08-04T16:47:59.589Z,98008.53
2022-08-04T16:50:27.860Z,98000.38
2022-08-04T16:52:56.288Z,97994.97
2022-08-04T16:55:27.904Z,97991.09
2022-08-04T16:57:57.107Z,97995.56
2022-08-04T17:00:34.495Z,97989.03
2022-08-04T17:03:03.281Z,97998.78
2022-08-04T17:05:38.322Z,97986.94
2022-08-04T17:08:29.052Z,97993.13
2022-08-04T17:10:56.486Z,97993.13
2022-08-04T17:14:02.377Z,97980.88
2022-08-04T17:16:18.256Z,97982.91
2022-08-04T17:18:47.547Z,97978.06
2022-08-04T17:21:19.484Z,97986.47
2022-08-04T17:24:15.062Z,97985.22
2022-08-04T17:26:39.471Z,97976.88
2022-08-04T17:31:58.055Z,97980.69
2022-08-04T17:34:26.581Z,97982.28
2022-08-04T17:37:07.270Z,97975.13
2022-08-04T17:39:43.326Z,97983.97
2022-08-04T17:42:29.183Z,97981.97
2022-08-04T17:45:48.672Z,97976.31
2022-08-04T17:47:57.168Z,97973.09
2022-08-04T17:50:25.500Z,97986.38
2022-08-04T17:53:00.087Z,97989.50
2022-08-04T17:55:40.199Z,97986.94
2022-08-04T17:58:13.843Z,97992.69
2022-08-04T18:03:53.551Z,97992.72
2022-08-04T18:06:23.316Z,97992.69
2022-08-04T18:08:57.755Z,97988.56
2022-08-04T18:11:29.820Z,97993.75
2022-08-04T18:14:09.878Z,97993.78
2022-08-04T18:16:43.815Z,97992.53
2022-08-04T18:19:14.421Z,97990.53
2022-08-04T18:21:46.881Z,97991.28
2022-08-04T18:24:35.829Z,98002.06
2022-08-04T18:27:20.144Z,97999.13
2022-08-04T18:30:15.330Z,97999.91
2022-08-04T18:32:36.671Z,97997.81
2022-08-04T18:35:22.848Z,98004.16
2022-08-04T18:38:05.587Z,97995.78
2022-08-04T18:40:52.690Z,98007.66
2022-08-04T18:43:28.453Z,98003.13
2022-08-04T18:45:59.555Z,98011.44
2022-08-04T18:51:23.538Z,98010.41
2022-08-04T18:53:58.706Z,98013.19
2022-08-04T18:56:33.033Z,98007.41
2022-08-04T18:59:03.045Z,98010.28
2022-08-04T19:02:12.934Z,98014.91
2022-08-04T19:04:33.762Z,98015.69
2022-08-04T19:08:01.528Z,98014.00
2022-08-04T19:09:57.723Z,98021.94
2022-08-04T19:12:28.490Z,98019.72
2022-08-04T19:14:58.201Z,98016.06
2022-08-04T19:17:57.026Z,98018.09
2022-08-04T19:20:25.625Z,98026.22
2022-08-04T19:24:27.022Z,98028.84
2022-08-04T19:25:58.896Z,98034.44
2022-08-04T19:31:28.079Z,98035.38
2022-08-04T19:34:07.328Z,98044.06
2022-08-04T19:36:35.879Z,98042.75
2022-08-04T19:39:11.518Z,98046.06
2022-08-04T19:42:04.678Z,98045.28
2022-08-04T19:44:30.602Z,98044.13
2022-08-04T19:47:00.824Z,98044.53
2022-08-04T19:50:04.623Z,98049.16
2022-08-04T19:52:33.691Z,98048.56
2022-08-04T19:57:54.006Z,98047.22
2022-08-04T20:00:33.182Z,98053.19
2022-08-04T20:03:02.681Z,98050.75
2022-08-04T20:05:34.156Z,98055.19
2022-08-04T20:08:19.163Z,98055.84
2022-08-04T20:10:52.000Z,98062.72
2022-08-04T20:13:20.873Z,98055.72
2022-08-04T20:15:57.765Z,98033.59
2022-08-04T20:18:35.127Z,98059.81
2022-08-04T20:21:11.200Z,98061.03
2022-08-04T20:23:48.301Z,98055.38
2022-08-04T20:26:19.485Z,98040.13
2022-08-04T20:28:51.835Z,98065.56
2022-08-04T20:31:20.570Z,98066.03
2022-08-04T20:33:53.791Z,98066.94
2022-08-04T20:36:23.567Z,98068.56
2022-08-04T20:38:54.550Z,98072.72
2022-08-04T20:41:24.170Z,98074.31
2022-08-04T20:43:52.296Z,98077.66
2022-08-04T20:46:28.705Z,98070.09
2022-08-04T20:48:58.010Z,98073.50
2022-08-04T20:51:32.128Z,98074.22
2022-08-04T20:54:03.397Z,98072.81
2022-08-04T20:56:51.145Z,98066.63
2022-08-04T20:59:22.227Z,98080.88
2022-08-04T21:01:53.787Z,98077.00
2022-08-04T21:04:35.582Z,98074.50
2022-08-04T21:07:05.631Z,98069.16
2022-08-04T21:09:38.387Z,98073.31
2022-08-04T21:12:27.463Z,98074.47
2022-08-04T21:15:01.220Z,98077.81
2022-08-04T21:17:58.809Z,98067.63
2022-08-04T21:20:29.365Z,98072.41
2022-08-04T21:22:59.558Z,98077.09
2022-08-04T21:25:27.852Z,98074.72
2022-08-04T21:27:58.732Z,98069.78
2022-08-04T21:30:27.193Z,98076.31
2022-08-04T21:32:57.528Z,98065.91
2022-08-04T21:35:36.801Z,98074.94
2022-08-04T21:38:16.580Z,98072.22
2022-08-04T21:40:52.318Z,98074.06
2022-08-04T21:43:23.686Z,98079.19
2022-08-04T21:46:04.954Z,98070.00
2022-08-04T21:48:33.679Z,98066.19
2022-08-04T21:51:21.689Z,98072.44
2022-08-04T21:54:01.925Z,98073.84
2022-08-04T21:56:30.040Z,98072.56
2022-08-04T21:59:02.621Z,98074.19
2022-08-04T22:02:36.812Z,98074.00
2022-08-04T22:05:07.313Z,98063.75
2022-08-04T22:07:50.324Z,98063.94
2022-08-04T22:10:22.437Z,98073.13
2022-08-04T22:13:07.072Z,98074.13
2022-08-04T22:16:04.954Z,98078.13
2022-08-04T22:18:27.531Z,98080.75
2022-08-04T22:20:56.068Z,98086.44
2022-08-04T22:23:25.209Z,98079.94
2022-08-04T22:25:56.180Z,98079.22
2022-08-04T22:28:28.159Z,98085.41
2022-08-04T22:30:57.194Z,98085.41
2022-08-04T22:33:55.141Z,98083.44
2022-08-04T22:36:15.447Z,98079.38
2022-08-04T22:38:49.976Z,98084.22
2022-08-04T22:41:34.002Z,98081.66
2022-08-04T22:44:15.357Z,98077.00
2022-08-04T22:46:44.218Z,98076.91
2022-08-04T22:49:15.244Z,98063.22
2022-08-04T22:51:48.277Z,98065.41
2022-08-04T22:54:18.899Z,98059.13
2022-08-04T22:56:47.484Z,98055.06
2022-08-04T22:59:15.541Z,98063.91
2022-08-04T23:01:59.755Z,98060.97
2022-08-04T23:04:31.162Z,98063.22
2022-08-04T23:07:00.037Z,98070.75
2022-08-04T23:09:50.254Z,98070.75
2022-08-04T23:12:27.221Z,98057.88
2022-08-04T23:14:56.875Z,98052.16
2022-08-04T23:17:25.853Z,98056.06
2022-08-04T23:19:59.348Z,98059.03
2022-08-04T23:22:41.698Z,98052.78
2022-08-04T23:25:15.496Z,98050.91
2022-08-04T23:27:51.274Z,98046.84
2022-08-04T23:30:21.674Z,98045.72
2022-08-04T23:32:52.706Z,98046.03
2022-08-04T23:35:22.599Z,98047.47
2022-08-04T23:37:56.723Z,98047.81
2022-08-04T23:40:33.072Z,98046.84
2022-08-04T23:43:02.207Z,98043.28
2022-08-04T23:46:04.574Z,98044.09
2022-08-04T23:48:28.590Z,98047.66
2022-08-04T23:51:03.773Z,98049.44
2022-08-04T23:54:02.099Z,98047.53
2022-08-04T23:56:31.960Z,98062.13
2022-08-04T23:59:00.548Z,98070.34
